sensor_id;sensor_type;location;lat;lon;timestamp;temperature;humidity
64111;DHT22;50401;48.188;11.566;2022-07-29T00:01:18;21.81;63.36
64111;DHT22;50401;48.188;11.566;2022-07-29T00:03:44;21.76;63.55
64111;DHT22;50401;48.188;11.566;2022-07-29T00:06:09;21.83;63.50
64111;DHT22;50401;48.188;11.566;2022-07-29T00:08:35;21.80;63.70
64111;DHT22;50401;48.188;11.566;2022-07-29T00:11:01;21.81;63.74
64111;DHT22;50401;48.188;11.566;2022-07-29T00:13:27;21.84;63.72
64111;DHT22;50401;48.188;11.566;2022-07-29T00:15:52;21.67;64.12
64111;DHT22;50401;48.188;11.566;2022-07-29T00:18:17;21.73;64.25
64111;DHT22;50401;48.188;11.566;2022-07-29T00:20:43;21.64;64.58
64111;DHT22;50401;48.188;11.566;2022-07-29T00:23:08;21.69;64.67
64111;DHT22;50401;48.188;11.566;2022-07-29T00:25:33;21.71;64.73
64111;DHT22;50401;48.188;11.566;2022-07-29T00:27:59;21.70;64.92
64111;DHT22;50401;48.188;11.566;2022-07-29T00:30:24;21.76;65.12
64111;DHT22;50401;48.188;11.566;2022-07-29T00:32:50;21.60;66.08
64111;DHT22;50401;48.188;11.566;2022-07-29T00:35:15;21.56;66.56
64111;DHT22;50401;48.188;11.566;2022-07-29T00:37:59;21.57;66.97
64111;DHT22;50401;48.188;11.566;2022-07-29T00:40:24;21.54;67.31
64111;DHT22;50401;48.188;11.566;2022-07-29T00:42:51;21.32;68.26
64111;DHT22;50401;48.188;11.566;2022-07-29T00:45:17;21.46;67.98
64111;DHT22;50401;48.188;11.566;2022-07-29T00:47:43;21.54;67.55
64111;DHT22;50401;48.188;11.566;2022-07-29T00:50:11;21.45;67.98
64111;DHT22;50401;48.188;11.566;2022-07-29T00:52:39;21.19;68.59
64111;DHT22;50401;48.188;11.566;2022-07-29T00:55:08;21.32;68.28
64111;DHT22;50401;48.188;11.566;2022-07-29T00:57:35;21.39;67.76
64111;DHT22;50401;48.188;11.566;2022-07-29T01:00:01;21.46;67.53
64111;DHT22;50401;48.188;11.566;2022-07-29T01:02:26;21.57;66.98
64111;DHT22;50401;48.188;11.566;2022-07-29T01:04:52;21.50;66.88
64111;DHT22;50401;48.188;11.566;2022-07-29T01:07:18;21.57;66.78
64111;DHT22;50401;48.188;11.566;2022-07-29T01:09:44;21.60;66.78
64111;DHT22;50401;48.188;11.566;2022-07-29T01:12:10;21.64;66.55
64111;DHT22;50401;48.188;11.566;2022-07-29T01:14:38;21.70;66.35
64111;DHT22;50401;48.188;11.566;2022-07-29T01:17:21;21.80;65.89
64111;DHT22;50401;48.188;11.566;2022-07-29T01:20:07;21.81;65.36
64111;DHT22;50401;48.188;11.566;2022-07-29T01:22:42;21.85;65.60
64111;DHT22;50401;48.188;11.566;2022-07-29T01:27:44;21.90;65.89
64111;DHT22;50401;48.188;11.566;2022-07-29T01:30:11;21.85;66.29
64111;DHT22;50401;48.188;11.566;2022-07-29T01:32:38;21.83;66.74
64111;DHT22;50401;48.188;11.566;2022-07-29T01:35:17;21.83;67.10
64111;DHT22;50401;48.188;11.566;2022-07-29T01:37:48;21.81;67.30
64111;DHT22;50401;48.188;11.566;2022-07-29T01:40:40;21.80;67.67
64111;DHT22;50401;48.188;11.566;2022-07-29T01:43:10;21.78;67.76
64111;DHT22;50401;48.188;11.566;2022-07-29T01:45:43;21.78;67.44
64111;DHT22;50401;48.188;11.566;2022-07-29T01:48:18;21.74;67.08
64111;DHT22;50401;48.188;11.566;2022-07-29T01:50:59;21.67;67.32
64111;DHT22;50401;48.188;11.566;2022-07-29T01:53:44;21.70;66.64
64111;DHT22;50401;48.188;11.566;2022-07-29T01:56:13;21.76;66.62
64111;DHT22;50401;48.188;11.566;2022-07-29T01:58:41;21.71;67.27
64111;DHT22;50401;48.188;11.566;2022-07-29T02:01:09;21.71;67.38
64111;DHT22;50401;48.188;11.566;2022-07-29T02:03:36;21.61;68.04
64111;DHT22;50401;48.188;11.566;2022-07-29T02:06:02;21.61;68.45
64111;DHT22;50401;48.188;11.566;2022-07-29T02:08:30;21.61;68.78
64111;DHT22;50401;48.188;11.566;2022-07-29T02:10:58;21.54;68.88
64111;DHT22;50401;48.188;11.566;2022-07-29T02:13:25;21.31;69.54
64111;DHT22;50401;48.188;11.566;2022-07-29T02:15:53;20.66;71.77
64111;DHT22;50401;48.188;11.566;2022-07-29T02:18:21;20.63;71.73
64111;DHT22;50401;48.188;11.566;2022-07-29T02:20:50;20.74;71.55
64111;DHT22;50401;48.188;11.566;2022-07-29T02:23:19;20.72;71.51
64111;DHT22;50401;48.188;11.566;2022-07-29T02:25:49;20.85;71.05
64111;DHT22;50401;48.188;11.566;2022-07-29T02:28:16;20.67;71.31
64111;DHT22;50401;48.188;11.566;2022-07-29T02:30:42;20.60;71.50
64111;DHT22;50401;48.188;11.566;2022-07-29T02:33:12;20.35;72.61
64111;DHT22;50401;48.188;11.566;2022-07-29T02:35:38;20.38;72.49
64111;DHT22;50401;48.188;11.566;2022-07-29T02:38:05;20.36;72.45
64111;DHT22;50401;48.188;11.566;2022-07-29T02:40:50;20.46;72.00
64111;DHT22;50401;48.188;11.566;2022-07-29T02:43:17;20.60;71.45
64111;DHT22;50401;48.188;11.566;2022-07-29T02:45:44;20.52;71.37
64111;DHT22;50401;48.188;11.566;2022-07-29T02:48:14;20.65;71.05
64111;DHT22;50401;48.188;11.566;2022-07-29T02:50:48;20.81;70.59
64111;DHT22;50401;48.188;11.566;2022-07-29T02:53:20;20.97;70.07
64111;DHT22;50401;48.188;11.566;2022-07-29T02:56:06;21.11;69.67
64111;DHT22;50401;48.188;11.566;2022-07-29T02:58:34;21.19;69.77
64111;DHT22;50401;48.188;11.566;2022-07-29T03:01:06;21.25;69.65
64111;DHT22;50401;48.188;11.566;2022-07-29T03:03:36;21.28;69.59
64111;DHT22;50401;48.188;11.566;2022-07-29T03:06:03;21.32;69.67
64111;DHT22;50401;48.188;11.566;2022-07-29T03:08:29;21.21;69.83
64111;DHT22;50401;48.188;11.566;2022-07-29T03:10:56;21.22;69.81
64111;DHT22;50401;48.188;11.566;2022-07-29T03:13:22;21.05;69.89
64111;DHT22;50401;48.188;11.566;2022-07-29T03:15:48;20.98;69.84
64111;DHT22;50401;48.188;11.566;2022-07-29T03:18:15;21.04;69.79
64111;DHT22;50401;48.188;11.566;2022-07-29T03:20:40;21.04;69.62
64111;DHT22;50401;48.188;11.566;2022-07-29T03:23:07;21.11;69.59
64111;DHT22;50401;48.188;11.566;2022-07-29T03:25:33;21.12;69.52
64111;DHT22;50401;48.188;11.566;2022-07-29T03:27:58;21.15;69.86
64111;DHT22;50401;48.188;11.566;2022-07-29T03:30:24;21.11;69.83
64111;DHT22;50401;48.188;11.566;2022-07-29T03:32:50;21.10;70.16
64111;DHT22;50401;48.188;11.566;2022-07-29T03:35:16;21.05;69.86
64111;DHT22;50401;48.188;11.566;2022-07-29T03:37:42;21.05;70.09
64111;DHT22;50401;48.188;11.566;2022-07-29T03:40:09;21.01;70.26
64111;DHT22;50401;48.188;11.566;2022-07-29T03:42:36;21.04;70.43
64111;DHT22;50401;48.188;11.566;2022-07-29T03:45:06;21.00;70.49
64111;DHT22;50401;48.188;11.566;2022-07-29T03:47:35;20.97;70.55
64111;DHT22;50401;48.188;11.566;2022-07-29T03:50:05;20.93;70.79
64111;DHT22;50401;48.188;11.566;2022-07-29T03:52:31;20.62;71.57
64111;DHT22;50401;48.188;11.566;2022-07-29T03:54:56;20.55;71.92
64111;DHT22;50401;48.188;11.566;2022-07-29T03:57:24;20.52;72.12
64111;DHT22;50401;48.188;11.566;2022-07-29T03:59:52;20.50;72.07
64111;DHT22;50401;48.188;11.566;2022-07-29T04:02:18;20.56;71.97
64111;DHT22;50401;48.188;11.566;2022-07-29T04:04:44;20.35;72.51
64111;DHT22;50401;48.188;11.566;2022-07-29T04:07:13;20.48;72.11
64111;DHT22;50401;48.188;11.566;2022-07-29T04:09:38;20.63;71.69
64111;DHT22;50401;48.188;11.566;2022-07-29T04:12:04;20.72;71.44
64111;DHT22;50401;48.188;11.566;2022-07-29T04:14:33;20.76;71.41
64111;DHT22;50401;48.188;11.566;2022-07-29T04:17:00;20.73;71.25
64111;DHT22;50401;48.188;11.566;2022-07-29T04:19:26;20.74;71.40
64111;DHT22;50401;48.188;11.566;2022-07-29T04:21:51;20.74;71.34
64111;DHT22;50401;48.188;11.566;2022-07-29T04:24:16;20.87;71.12
64111;DHT22;50401;48.188;11.566;2022-07-29T04:26:42;20.91;71.10
64111;DHT22;50401;48.188;11.566;2022-07-29T04:29:08;20.98;70.97
64111;DHT22;50401;48.188;11.566;2022-07-29T04:31:33;21.10;70.58
64111;DHT22;50401;48.188;11.566;2022-07-29T04:33:59;21.21;70.22
64111;DHT22;50401;48.188;11.566;2022-07-29T04:36:24;21.34;70.04
64111;DHT22;50401;48.188;11.566;2022-07-29T04:38:49;21.43;69.45
64111;DHT22;50401;48.188;11.566;2022-07-29T04:41:15;21.50;69.24
64111;DHT22;50401;48.188;11.566;2022-07-29T04:43:40;21.56;69.06
64111;DHT22;50401;48.188;11.566;2022-07-29T04:46:06;21.56;69.06
64111;DHT22;50401;48.188;11.566;2022-07-29T04:48:31;21.41;69.64
64111;DHT22;50401;48.188;11.566;2022-07-29T04:50:57;21.78;68.78
64111;DHT22;50401;48.188;11.566;2022-07-29T04:53:22;22.11;68.00
64111;DHT22;50401;48.188;11.566;2022-07-29T04:55:48;22.42;66.79
64111;DHT22;50401;48.188;11.566;2022-07-29T04:58:13;22.71;65.96
64111;DHT22;50401;48.188;11.566;2022-07-29T05:00:39;22.90;64.89
64111;DHT22;50401;48.188;11.566;2022-07-29T05:03:04;23.18;64.11
64111;DHT22;50401;48.188;11.566;2022-07-29T05:05:30;23.39;63.58
64111;DHT22;50401;48.188;11.566;2022-07-29T05:07:55;23.67;62.99
64111;DHT22;50401;48.188;11.566;2022-07-29T05:10:21;23.97;62.01
64111;DHT22;50401;48.188;11.566;2022-07-29T05:12:47;24.20;61.23
64111;DHT22;50401;48.188;11.566;2022-07-29T05:15:12;24.10;61.19
64111;DHT22;50401;48.188;11.566;2022-07-29T05:17:37;23.65;62.41
64111;DHT22;50401;48.188;11.566;2022-07-29T05:20:04;23.40;63.16
64111;DHT22;50401;48.188;11.566;2022-07-29T05:22:29;23.20;63.24
64111;DHT22;50401;48.188;11.566;2022-07-29T05:24:55;23.75;61.95
64111;DHT22;50401;48.188;11.566;2022-07-29T05:27:20;24.56;59.75
64111;DHT22;50401;48.188;11.566;2022-07-29T05:29:45;24.92;58.69
64111;DHT22;50401;48.188;11.566;2022-07-29T05:32:12;25.20;58.04
64111;DHT22;50401;48.188;11.566;2022-07-29T05:34:37;25.27;57.70
64111;DHT22;50401;48.188;11.566;2022-07-29T05:37:03;25.54;57.35
64111;DHT22;50401;48.188;11.566;2022-07-29T05:39:29;25.75;56.65
64111;DHT22;50401;48.188;11.566;2022-07-29T05:41:54;25.75;56.30
64111;DHT22;50401;48.188;11.566;2022-07-29T05:44:19;26.24;55.29
64111;DHT22;50401;48.188;11.566;2022-07-29T05:46:45;26.30;54.70
64111;DHT22;50401;48.188;11.566;2022-07-29T05:49:11;26.10;54.93
64111;DHT22;50401;48.188;11.566;2022-07-29T05:51:37;25.10;56.94
64111;DHT22;50401;48.188;11.566;2022-07-29T05:54:02;25.96;55.24
64111;DHT22;50401;48.188;11.566;2022-07-29T05:56:28;26.80;53.22
64111;DHT22;50401;48.188;11.566;2022-07-29T05:58:53;27.51;50.79
64111;DHT22;50401;48.188;11.566;2022-07-29T06:01:19;28.08;49.25
64111;DHT22;50401;48.188;11.566;2022-07-29T06:03:45;28.65;48.00
64111;DHT22;50401;48.188;11.566;2022-07-29T06:06:10;29.10;46.83
64111;DHT22;50401;48.188;11.566;2022-07-29T06:08:36;29.53;45.77
64111;DHT22;50401;48.188;11.566;2022-07-29T06:11:08;29.84;44.89
64111;DHT22;50401;48.188;11.566;2022-07-29T06:13:36;29.43;45.06
64111;DHT22;50401;48.188;11.566;2022-07-29T06:16:02;29.07;45.94
64111;DHT22;50401;48.188;11.566;2022-07-29T06:18:27;28.90;46.71
64111;DHT22;50401;48.188;11.566;2022-07-29T06:20:53;29.10;46.08
64111;DHT22;50401;48.188;11.566;2022-07-29T06:23:19;29.66;44.77
64111;DHT22;50401;48.188;11.566;2022-07-29T06:25:45;30.24;43.86
64111;DHT22;50401;48.188;11.566;2022-07-29T06:28:11;30.71;42.93
64111;DHT22;50401;48.188;11.566;2022-07-29T06:30:37;31.04;41.94
64111;DHT22;50401;48.188;11.566;2022-07-29T06:33:02;31.05;41.22
64111;DHT22;50401;48.188;11.566;2022-07-29T06:35:28;31.08;41.35
64111;DHT22;50401;48.188;11.566;2022-07-29T06:37:53;30.55;40.73
64111;DHT22;50401;48.188;11.566;2022-07-29T06:40:19;31.05;39.79
64111;DHT22;50401;48.188;11.566;2022-07-29T06:43:03;28.96;44.19
64111;DHT22;50401;48.188;11.566;2022-07-29T06:45:29;27.52;46.80
64111;DHT22;50401;48.188;11.566;2022-07-29T06:47:54;28.45;45.62
64111;DHT22;50401;48.188;11.566;2022-07-29T06:50:20;29.86;42.74
64111;DHT22;50401;48.188;11.566;2022-07-29T06:52:47;30.52;41.52
64111;DHT22;50401;48.188;11.566;2022-07-29T06:55:12;29.62;43.23
64111;DHT22;50401;48.188;11.566;2022-07-29T06:57:38;29.08;44.43
64111;DHT22;50401;48.188;11.566;2022-07-29T07:00:04;28.97;44.92
64111;DHT22;50401;48.188;11.566;2022-07-29T07:02:30;30.39;41.58
64111;DHT22;50401;48.188;11.566;2022-07-29T07:04:55;31.49;39.36
64111;DHT22;50401;48.188;11.566;2022-07-29T07:07:21;32.14;37.68
64111;DHT22;50401;48.188;11.566;2022-07-29T07:09:46;31.18;38.71
64111;DHT22;50401;48.188;11.566;2022-07-29T07:12:11;32.28;37.58
64111;DHT22;50401;48.188;11.566;2022-07-29T07:14:37;32.74;36.84
64111;DHT22;50401;48.188;11.566;2022-07-29T07:17:02;33.29;36.02
64111;DHT22;50401;48.188;11.566;2022-07-29T07:19:29;33.14;35.77
64111;DHT22;50401;48.188;11.566;2022-07-29T07:21:54;33.94;35.05
64111;DHT22;50401;48.188;11.566;2022-07-29T07:24:19;34.26;34.66
64111;DHT22;50401;48.188;11.566;2022-07-29T07:26:45;34.29;34.19
64111;DHT22;50401;48.188;11.566;2022-07-29T07:29:10;32.99;35.47
64111;DHT22;50401;48.188;11.566;2022-07-29T07:31:36;33.37;35.59
64111;DHT22;50401;48.188;11.566;2022-07-29T07:34:02;33.02;35.90
64111;DHT22;50401;48.188;11.566;2022-07-29T07:36:27;32.66;36.61
64111;DHT22;50401;48.188;11.566;2022-07-29T07:38:53;32.75;36.53
64111;DHT22;50401;48.188;11.566;2022-07-29T07:41:18;31.92;37.49
64111;DHT22;50401;48.188;11.566;2022-07-29T07:43:43;32.06;37.96
64111;DHT22;50401;48.188;11.566;2022-07-29T07:46:09;31.91;37.56
64111;DHT22;50401;48.188;11.566;2022-07-29T07:48:34;31.29;38.59
64111;DHT22;50401;48.188;11.566;2022-07-29T07:51:00;32.01;37.51
64111;DHT22;50401;48.188;11.566;2022-07-29T07:53:26;33.08;36.27
64111;DHT22;50401;48.188;11.566;2022-07-29T07:55:51;34.09;34.76
64111;DHT22;50401;48.188;11.566;2022-07-29T07:58:17;32.49;35.28
64111;DHT22;50401;48.188;11.566;2022-07-29T08:00:42;34.05;33.95
64111;DHT22;50401;48.188;11.566;2022-07-29T08:03:07;34.95;32.56
64111;DHT22;50401;48.188;11.566;2022-07-29T08:05:33;35.55;30.99
64111;DHT22;50401;48.188;11.566;2022-07-29T08:07:59;36.30;30.11
64111;DHT22;50401;48.188;11.566;2022-07-29T08:10:24;36.44;29.80
64111;DHT22;50401;48.188;11.566;2022-07-29T08:13:09;36.89;29.25
64111;DHT22;50401;48.188;11.566;2022-07-29T08:15:36;36.82;29.41
64111;DHT22;50401;48.188;11.566;2022-07-29T08:18:02;36.78;29.17
64111;DHT22;50401;48.188;11.566;2022-07-29T08:20:27;36.70;29.54
64111;DHT22;50401;48.188;11.566;2022-07-29T08:22:52;35.32;30.13
64111;DHT22;50401;48.188;11.566;2022-07-29T08:25:19;35.03;31.26
64111;DHT22;50401;48.188;11.566;2022-07-29T08:27:46;34.91;31.88
64111;DHT22;50401;48.188;11.566;2022-07-29T08:30:11;34.81;32.12
64111;DHT22;50401;48.188;11.566;2022-07-29T08:32:37;34.47;32.86
64111;DHT22;50401;48.188;11.566;2022-07-29T08:35:02;34.10;33.39
64111;DHT22;50401;48.188;11.566;2022-07-29T08:37:28;32.66;34.98
64111;DHT22;50401;48.188;11.566;2022-07-29T08:39:53;31.66;37.03
64111;DHT22;50401;48.188;11.566;2022-07-29T08:42:19;30.66;38.54
64111;DHT22;50401;48.188;11.566;2022-07-29T08:44:44;31.73;37.50
64111;DHT22;50401;48.188;11.566;2022-07-29T08:47:13;31.67;37.85
64111;DHT22;50401;48.188;11.566;2022-07-29T08:49:39;30.52;38.87
64111;DHT22;50401;48.188;11.566;2022-07-29T08:52:04;30.53;39.33
64111;DHT22;50401;48.188;11.566;2022-07-29T08:54:30;30.53;39.93
64111;DHT22;50401;48.188;11.566;2022-07-29T08:56:56;30.29;40.72
64111;DHT22;50401;48.188;11.566;2022-07-29T08:59:24;30.29;40.50
64111;DHT22;50401;48.188;11.566;2022-07-29T09:01:52;30.18;40.78
64111;DHT22;50401;48.188;11.566;2022-07-29T09:04:19;30.38;40.64
64111;DHT22;50401;48.188;11.566;2022-07-29T09:06:47;30.42;40.97
64111;DHT22;50401;48.188;11.566;2022-07-29T09:09:13;30.78;40.15
64111;DHT22;50401;48.188;11.566;2022-07-29T09:11:40;30.86;40.25
64111;DHT22;50401;48.188;11.566;2022-07-29T09:14:06;31.01;39.79
64111;DHT22;50401;48.188;11.566;2022-07-29T09:16:53;31.10;39.64
64111;DHT22;50401;48.188;11.566;2022-07-29T09:19:31;31.28;39.85
64111;DHT22;50401;48.188;11.566;2022-07-29T09:21:59;31.36;39.37
64111;DHT22;50401;48.188;11.566;2022-07-29T09:24:46;31.02;39.88
64111;DHT22;50401;48.188;11.566;2022-07-29T09:27:22;30.99;39.73
64111;DHT22;50401;48.188;11.566;2022-07-29T09:30:06;30.84;40.31
64111;DHT22;50401;48.188;11.566;2022-07-29T09:32:33;30.86;40.64
64111;DHT22;50401;48.188;11.566;2022-07-29T09:35:18;30.46;40.77
64111;DHT22;50401;48.188;11.566;2022-07-29T09:37:44;30.36;41.61
64111;DHT22;50401;48.188;11.566;2022-07-29T09:40:18;30.22;41.99
64111;DHT22;50401;48.188;11.566;2022-07-29T09:42:45;30.60;41.23
64111;DHT22;50401;48.188;11.566;2022-07-29T09:45:11;30.84;41.03
64111;DHT22;50401;48.188;11.566;2022-07-29T09:47:55;30.66;41.28
64111;DHT22;50401;48.188;11.566;2022-07-29T09:50:38;30.17;41.98
64111;DHT22;50401;48.188;11.566;2022-07-29T09:53:03;29.78;42.83
64111;DHT22;50401;48.188;11.566;2022-07-29T09:55:29;29.70;42.98
64111;DHT22;50401;48.188;11.566;2022-07-29T09:58:14;29.21;43.60
64111;DHT22;50401;48.188;11.566;2022-07-29T10:00:42;29.35;43.72
64111;DHT22;50401;48.188;11.566;2022-07-29T10:03:07;29.48;43.82
64111;DHT22;50401;48.188;11.566;2022-07-29T10:05:33;29.55;43.63
64111;DHT22;50401;48.188;11.566;2022-07-29T10:07:58;29.55;43.73
64111;DHT22;50401;48.188;11.566;2022-07-29T10:10:29;29.58;43.59
64111;DHT22;50401;48.188;11.566;2022-07-29T10:12:57;29.78;43.63
64111;DHT22;50401;48.188;11.566;2022-07-29T10:15:25;29.65;42.95
64111;DHT22;50401;48.188;11.566;2022-07-29T10:17:52;29.60;43.15
64111;DHT22;50401;48.188;11.566;2022-07-29T10:20:18;29.77;42.70
64111;DHT22;50401;48.188;11.566;2022-07-29T10:22:44;29.81;43.08
64111;DHT22;50401;48.188;11.566;2022-07-29T10:25:12;29.91;42.92
64111;DHT22;50401;48.188;11.566;2022-07-29T10:27:37;29.74;43.33
64111;DHT22;50401;48.188;11.566;2022-07-29T10:30:04;29.46;43.89
64111;DHT22;50401;48.188;11.566;2022-07-29T10:35:15;30.10;43.11
64111;DHT22;50401;48.188;11.566;2022-07-29T10:37:46;29.41;43.67
64111;DHT22;50401;48.188;11.566;2022-07-29T10:43:29;29.18;44.61
64111;DHT22;50401;48.188;11.566;2022-07-29T10:45:58;29.25;44.69
64111;DHT22;50401;48.188;11.566;2022-07-29T10:48:24;29.43;43.86
64111;DHT22;50401;48.188;11.566;2022-07-29T10:50:55;29.53;43.77
64111;DHT22;50401;48.188;11.566;2022-07-29T10:53:21;29.01;44.00
64111;DHT22;50401;48.188;11.566;2022-07-29T10:55:47;28.86;44.43
64111;DHT22;50401;48.188;11.566;2022-07-29T10:58:16;28.80;44.66
64111;DHT22;50401;48.188;11.566;2022-07-29T11:04:04;28.60;45.20
64111;DHT22;50401;48.188;11.566;2022-07-29T11:07:06;28.73;43.81
64111;DHT22;50401;48.188;11.566;2022-07-29T11:09:32;28.86;43.38
64111;DHT22;50401;48.188;11.566;2022-07-29T11:11:58;28.94;44.32
64111;DHT22;50401;48.188;11.566;2022-07-29T11:17:17;29.24;43.20
64111;DHT22;50401;48.188;11.566;2022-07-29T11:19:42;29.15;43.10
64111;DHT22;50401;48.188;11.566;2022-07-29T11:22:10;29.10;44.12
64111;DHT22;50401;48.188;11.566;2022-07-29T11:24:35;29.22;43.95
64111;DHT22;50401;48.188;11.566;2022-07-29T11:27:18;29.32;43.39
64111;DHT22;50401;48.188;11.566;2022-07-29T11:29:56;29.29;43.05
64111;DHT22;50401;48.188;11.566;2022-07-29T11:32:23;29.28;42.35
64111;DHT22;50401;48.188;11.566;2022-07-29T11:35:16;29.26;42.01
64111;DHT22;50401;48.188;11.566;2022-07-29T11:37:42;29.28;42.08
64111;DHT22;50401;48.188;11.566;2022-07-29T11:40:10;29.29;42.10
64111;DHT22;50401;48.188;11.566;2022-07-29T11:42:40;29.38;42.24
64111;DHT22;50401;48.188;11.566;2022-07-29T11:54:33;29.77;41.00
64111;DHT22;50401;48.188;11.566;2022-07-29T11:56:59;29.73;39.88
64111;DHT22;50401;48.188;11.566;2022-07-29T12:02:46;29.41;38.07
64111;DHT22;50401;48.188;11.566;2022-07-29T12:05:11;29.38;37.98
64111;DHT22;50401;48.188;11.566;2022-07-29T12:07:38;29.36;39.02
64111;DHT22;50401;48.188;11.566;2022-07-29T12:10:05;29.38;38.90
64111;DHT22;50401;48.188;11.566;2022-07-29T12:12:31;29.35;38.71
64111;DHT22;50401;48.188;11.566;2022-07-29T12:14:56;29.29;39.12
64111;DHT22;50401;48.188;11.566;2022-07-29T12:17:32;29.26;39.48
64111;DHT22;50401;48.188;11.566;2022-07-29T12:20:03;29.32;39.49
64111;DHT22;50401;48.188;11.566;2022-07-29T12:22:34;29.42;39.67
64111;DHT22;50401;48.188;11.566;2022-07-29T12:25:18;29.49;39.48
64111;DHT22;50401;48.188;11.566;2022-07-29T12:27:44;29.56;39.40
64111;DHT22;50401;48.188;11.566;2022-07-29T12:30:12;29.66;39.78
64111;DHT22;50401;48.188;11.566;2022-07-29T12:32:40;29.69;39.86
64111;DHT22;50401;48.188;11.566;2022-07-29T12:35:10;29.70;40.24
64111;DHT22;50401;48.188;11.566;2022-07-29T12:37:38;29.76;40.25
64111;DHT22;50401;48.188;11.566;2022-07-29T12:40:05;29.72;40.51
64111;DHT22;50401;48.188;11.566;2022-07-29T12:42:31;29.80;40.57
64111;DHT22;50401;48.188;11.566;2022-07-29T12:44:57;29.81;40.13
64111;DHT22;50401;48.188;11.566;2022-07-29T12:47:23;29.70;39.76
64111;DHT22;50401;48.188;11.566;2022-07-29T12:49:49;29.60;40.18
64111;DHT22;50401;48.188;11.566;2022-07-29T12:52:25;29.49;40.21
64111;DHT22;50401;48.188;11.566;2022-07-29T12:54:50;29.42;40.90
64111;DHT22;50401;48.188;11.566;2022-07-29T12:57:16;29.36;41.05
64111;DHT22;50401;48.188;11.566;2022-07-29T12:59:41;29.28;40.86
64111;DHT22;50401;48.188;11.566;2022-07-29T13:02:20;29.14;40.82
64111;DHT22;50401;48.188;11.566;2022-07-29T13:04:55;29.17;40.72
64111;DHT22;50401;48.188;11.566;2022-07-29T13:07:29;29.07;39.90
64111;DHT22;50401;48.188;11.566;2022-07-29T13:12:34;28.72;39.78
64111;DHT22;50401;48.188;11.566;2022-07-29T13:15:00;28.62;40.20
64111;DHT22;50401;48.188;11.566;2022-07-29T13:17:26;28.67;40.35
64111;DHT22;50401;48.188;11.566;2022-07-29T13:20:08;28.66;40.87
64111;DHT22;50401;48.188;11.566;2022-07-29T13:22:37;28.60;41.45
64111;DHT22;50401;48.188;11.566;2022-07-29T13:25:03;28.53;41.86
64111;DHT22;50401;48.188;11.566;2022-07-29T13:27:31;28.42;42.39
64111;DHT22;50401;48.188;11.566;2022-07-29T13:30:01;28.41;42.61
64111;DHT22;50401;48.188;11.566;2022-07-29T13:32:28;28.37;42.75
64111;DHT22;50401;48.188;11.566;2022-07-29T13:34:59;28.32;42.45
64111;DHT22;50401;48.188;11.566;2022-07-29T13:37:25;28.29;42.57
64111;DHT22;50401;48.188;11.566;2022-07-29T13:39:51;28.24;42.95
64111;DHT22;50401;48.188;11.566;2022-07-29T13:42:18;28.22;43.16
64111;DHT22;50401;48.188;11.566;2022-07-29T13:44:43;28.22;43.39
64111;DHT22;50401;48.188;11.566;2022-07-29T13:47:09;28.18;43.72
64111;DHT22;50401;48.188;11.566;2022-07-29T13:49:34;28.17;44.04
64111;DHT22;50401;48.188;11.566;2022-07-29T13:52:00;28.17;44.15
64111;DHT22;50401;48.188;11.566;2022-07-29T13:54:26;28.18;44.64
64111;DHT22;50401;48.188;11.566;2022-07-29T13:56:51;28.22;44.65
64111;DHT22;50401;48.188;11.566;2022-07-29T13:59:17;28.24;44.67
64111;DHT22;50401;48.188;11.566;2022-07-29T14:01:42;28.35;44.21
64111;DHT22;50401;48.188;11.566;2022-07-29T14:04:09;28.38;43.79
64111;DHT22;50401;48.188;11.566;2022-07-29T14:06:34;28.42;42.43
64111;DHT22;50401;48.188;11.566;2022-07-29T14:09:00;28.47;42.19
64111;DHT22;50401;48.188;11.566;2022-07-29T14:11:26;28.56;41.82
64111;DHT22;50401;48.188;11.566;2022-07-29T14:13:52;28.59;41.52
64111;DHT22;50401;48.188;11.566;2022-07-29T14:16:17;28.59;41.16
64111;DHT22;50401;48.188;11.566;2022-07-29T14:18:43;28.49;41.04
64111;DHT22;50401;48.188;11.566;2022-07-29T14:21:08;28.47;41.11
64111;DHT22;50401;48.188;11.566;2022-07-29T14:23:34;28.48;41.14
64111;DHT22;50401;48.188;11.566;2022-07-29T14:25:59;28.60;41.26
64111;DHT22;50401;48.188;11.566;2022-07-29T14:28:25;28.63;41.16
64111;DHT22;50401;48.188;11.566;2022-07-29T14:30:50;28.58;41.26
64111;DHT22;50401;48.188;11.566;2022-07-29T14:33:17;28.51;41.11
64111;DHT22;50401;48.188;11.566;2022-07-29T14:35:42;28.45;41.68
64111;DHT22;50401;48.188;11.566;2022-07-29T14:38:08;28.47;42.01
64111;DHT22;50401;48.188;11.566;2022-07-29T14:40:34;28.45;42.55
64111;DHT22;50401;48.188;11.566;2022-07-29T14:42:59;28.38;42.72
64111;DHT22;50401;48.188;11.566;2022-07-29T14:45:25;28.41;42.90
64111;DHT22;50401;48.188;11.566;2022-07-29T14:47:50;28.40;43.14
64111;DHT22;50401;48.188;11.566;2022-07-29T14:50:16;28.20;43.78
64111;DHT22;50401;48.188;11.566;2022-07-29T14:52:41;28.10;44.05
64111;DHT22;50401;48.188;11.566;2022-07-29T14:55:07;28.07;44.28
64111;DHT22;50401;48.188;11.566;2022-07-29T14:57:33;28.07;44.45
64111;DHT22;50401;48.188;11.566;2022-07-29T14:59:58;28.03;44.62
64111;DHT22;50401;48.188;11.566;2022-07-29T15:02:23;28.06;44.35
64111;DHT22;50401;48.188;11.566;2022-07-29T15:04:49;27.99;44.69
64111;DHT22;50401;48.188;11.566;2022-07-29T15:07:15;28.13;46.36
64111;DHT22;50401;48.188;11.566;2022-07-29T15:09:41;28.21;46.19
64111;DHT22;50401;48.188;11.566;2022-07-29T15:12:07;28.17;50.08
64111;DHT22;50401;48.188;11.566;2022-07-29T15:14:33;28.13;52.43
64111;DHT22;50401;48.188;11.566;2022-07-29T15:16:58;28.06;50.55
64111;DHT22;50401;48.188;11.566;2022-07-29T15:19:24;27.90;50.77
64111;DHT22;50401;48.188;11.566;2022-07-29T15:21:49;27.73;51.50
64111;DHT22;50401;48.188;11.566;2022-07-29T15:24:18;27.63;51.18
64111;DHT22;50401;48.188;11.566;2022-07-29T15:26:44;27.54;50.61
64111;DHT22;50401;48.188;11.566;2022-07-29T15:29:10;27.41;49.24
64111;DHT22;50401;48.188;11.566;2022-07-29T15:31:35;27.27;53.40
64111;DHT22;50401;48.188;11.566;2022-07-29T15:34:00;27.07;56.52
64111;DHT22;50401;48.188;11.566;2022-07-29T15:36:26;26.97;57.53
64111;DHT22;50401;48.188;11.566;2022-07-29T15:38:52;26.86;60.43
64111;DHT22;50401;48.188;11.566;2022-07-29T15:41:18;26.76;58.77
64111;DHT22;50401;48.188;11.566;2022-07-29T15:43:44;26.62;60.07
64111;DHT22;50401;48.188;11.566;2022-07-29T15:46:14;26.52;59.59
64111;DHT22;50401;48.188;11.566;2022-07-29T15:48:58;26.48;59.18